Time;durP1;ratioP1;P1;durP2;ratioP2;P2;SDS_P1;SDS_P2;PMS_P1;PMS_P2;Temp;Humidity;BMP_temperature;BMP_pressure;BME280_temperature;BME280_humidity;BME280_pressure;Samples;Min_cycle;Max_cycle;Signal;HPM_P1;HPM_P2
2021/11/08 00:02:09;;;;;;;12.50;2.95;;;;;;;9.19;68.22;100000.06;6009408;23;20401;-87
2021/11/08 00:04:36;;;;;;;19.17;3.85;;;;;;;9.17;68.44;99993.19;5985831;23;20460;-85
2021/11/08 00:07:04;;;;;;;13.43;2.97;;;;;;;9.13;67.91;99990.72;5985983;23;20024;-85
2021/11/08 00:09:31;;;;;;;8.73;2.67;;;;;;;9.10;68.11;99996.13;6008317;23;20027;-86
2021/11/08 00:11:58;;;;;;;15.10;3.10;;;;;;;9.09;68.40;99998.81;6010390;23;20032;-86
2021/11/08 00:14:26;;;;;;;12.07;3.03;;;;;;;9.07;68.39;99996.25;6011058;23;20027;-88
2021/11/08 00:17:02;;;;;;;12.48;3.22;;;;;;;9.07;68.62;99991.00;5985312;23;20027;-85
2021/11/08 00:21:59;;;;;;;18.40;3.72;;;;;;;9.10;68.69;100005.78;6010571;23;20483;-86
2021/11/08 00:24:27;;;;;;;10.27;2.85;;;;;;;9.10;68.92;100011.88;5986485;23;20030;-84
2021/11/08 00:26:54;;;;;;;15.45;3.42;;;;;;;9.13;68.99;100008.25;6009789;23;20028;-86
2021/11/08 00:29:21;;;;;;;14.32;3.42;;;;;;;9.16;68.76;100010.72;6010013;23;20028;-85
2021/11/08 00:31:48;;;;;;;11.27;2.58;;;;;;;9.18;68.76;100002.78;6010626;23;20027;-87
2021/11/08 00:34:15;;;;;;;10.88;3.13;;;;;;;9.18;68.95;100014.13;6010587;23;20031;-87
2021/11/08 00:36:42;;;;;;;11.43;3.20;;;;;;;9.20;68.77;100004.41;6009876;23;20460;-87
2021/11/08 00:39:09;;;;;;;13.77;3.08;;;;;;;9.21;68.93;100003.50;6010866;23;20090;-87
2021/11/08 00:41:36;;;;;;;13.52;2.83;;;;;;;9.21;68.72;100008.75;6010315;23;20027;-87
2021/11/08 00:44:03;;;;;;;10.57;2.28;;;;;;;9.23;68.56;100021.78;5986008;23;20023;-88
2021/11/08 00:46:30;;;;;;;12.55;2.60;;;;;;;9.22;68.54;100020.09;5986087;23;20092;-83
2021/11/08 00:48:57;;;;;;;15.65;2.97;;;;;;;9.22;68.61;100018.31;5985786;23;20028;-88
2021/11/08 00:51:24;;;;;;;11.15;2.65;;;;;;;9.23;68.59;100022.66;5986107;23;20524;-87
2021/11/08 00:53:51;;;;;;;11.98;3.00;;;;;;;9.22;68.78;100020.94;6010538;23;20035;-87
2021/11/08 00:56:21;;;;;;;12.10;2.45;;;;;;;9.22;68.73;100025.34;6010407;23;20088;-86
2021/11/08 00:58:48;;;;;;;10.55;2.85;;;;;;;9.21;68.91;100037.66;6009541;23;20024;-86
2021/11/08 01:01:22;;;;;;;8.77;2.50;;;;;;;9.23;68.90;100029.66;5985688;23;20039;-83
2021/11/08 01:03:51;;;;;;;9.70;2.40;;;;;;;9.23;68.95;100030.53;5986124;23;20057;-84
2021/11/08 01:06:21;;;;;;;13.30;2.80;;;;;;;9.22;68.96;100036.72;6010030;23;20028;-88
2021/11/08 01:08:52;;;;;;;15.02;3.22;;;;;;;9.25;69.34;100027.84;5986803;23;20092;-86
2021/11/08 01:11:19;;;;;;;14.98;2.90;;;;;;;9.24;69.15;100034.84;6010609;23;20463;-87
2021/11/08 01:13:45;;;;;;;14.50;2.85;;;;;;;9.26;69.18;100029.53;6010825;23;20028;-87
2021/11/08 01:16:13;;;;;;;10.13;2.85;;;;;;;9.27;69.13;100033.84;6008792;23;20034;-87
2021/11/08 01:18:40;;;;;;;9.55;2.92;;;;;;;9.30;68.91;100035.50;6010803;23;20023;-87
2021/11/08 01:21:08;;;;;;;12.80;2.83;;;;;;;9.30;69.05;100041.59;6010920;23;20024;-86
2021/11/08 01:23:36;;;;;;;15.98;3.13;;;;;;;9.30;68.56;100032.88;5986180;23;20066;-87
2021/11/08 01:26:07;;;;;;;14.60;3.28;;;;;;;9.28;68.56;100042.59;6010802;23;20035;-85
2021/11/08 01:28:37;;;;;;;9.70;2.78;;;;;;;9.27;68.67;100038.28;5985113;23;20460;-87
2021/11/08 01:31:06;;;;;;;12.57;2.50;;;;;;;9.24;68.65;100039.28;6010100;23;20028;-87
2021/11/08 01:33:34;;;;;;;13.85;3.25;;;;;;;9.23;68.99;100050.69;6012104;23;20027;-87
2021/11/08 01:38:50;;;;;;;8.05;2.72;;;;;;;9.22;69.09;100043.72;6011728;23;20059;-87
2021/11/08 01:41:23;;;;;;;12.25;2.78;;;;;;;9.22;69.11;100048.97;5987364;23;20027;-87
2021/11/08 01:43:50;;;;;;;;;;;;;;;9.24;68.86;100045.34;6011909;23;20356;-83
2021/11/08 01:46:18;;;;;;;11.52;2.50;;;;;;;9.31;69.16;100055.59;6012843;23;19919;-88
2021/11/08 01:48:46;;;;;;;8.65;2.88;;;;;;;9.32;69.34;100054.66;6012188;23;20030;-85
2021/11/08 01:51:14;;;;;;;18.38;3.22;;;;;;;9.32;69.26;100052.91;6012322;23;20026;-83
2021/11/08 01:53:51;;;;;;;13.35;2.45;;;;;;;9.31;69.12;100055.59;6012722;23;20079;-88
2021/11/08 01:56:18;;;;;;;11.50;3.25;;;;;;;9.35;69.25;100062.41;5964705;23;20024;-85
2021/11/08 01:58:46;;;;;;;13.60;3.03;;;;;;;9.36;69.37;100053.59;6011555;23;20456;-87
2021/11/08 02:01:14;;;;;;;11.93;3.00;;;;;;;9.37;69.18;100052.66;6012055;23;20460;-87
2021/11/08 02:03:43;;;;;;;16.08;2.70;;;;;;;9.37;68.88;100060.56;6011903;23;20467;-84
2021/11/08 02:06:10;;;;;;;11.85;3.47;;;;;;;9.37;69.11;100053.53;6012717;23;20032;-86
2021/11/08 02:08:38;;;;;;;13.35;2.53;;;;;;;9.37;69.14;100050.91;6010451;23;20348;-87
2021/11/08 02:11:06;;;;;;;12.63;2.97;;;;;;;9.38;69.21;100057.84;6010672;23;20060;-87
2021/11/08 02:13:34;;;;;;;9.43;2.40;;;;;;;9.39;69.10;100053.47;6011512;23;20027;-83
2021/11/08 02:16:01;;;;;;;13.13;2.95;;;;;;;9.39;69.08;100062.19;5987017;23;20024;-87
2021/11/08 02:18:28;;;;;;;12.00;2.80;;;;;;;9.41;69.16;100053.41;5987226;23;20049;-87
2021/11/08 02:20:55;;;;;;;8.95;2.50;;;;;;;9.41;68.96;100056.84;6012128;23;20027;-86
2021/11/08 02:23:24;;;;;;;13.82;2.80;;;;;;;9.41;69.14;100061.28;6010500;23;20034;-87
2021/11/08 02:25:54;;;;;;;9.98;2.30;;;;;;;9.41;68.93;100059.47;5987551;23;20030;-86
2021/11/08 02:28:22;;;;;;;12.70;2.80;;;;;;;9.41;69.11;100056.03;6011785;23;20027;-87
2021/11/08 02:30:53;;;;;;;10.60;2.35;;;;;;;9.41;68.74;100056.84;6012027;23;20464;-88
2021/11/08 02:33:21;;;;;;;13.70;2.65;;;;;;;9.41;68.54;100070.00;5987328;23;20030;-88
2021/11/08 02:35:48;;;;;;;10.35;2.55;;;;;;;9.40;68.74;100065.66;6011557;23;20028;-87
2021/11/08 02:38:27;;;;;;;11.80;2.85;;;;;;;9.38;68.55;100057.84;6012129;23;20020;-87
2021/11/08 02:40:57;;;;;;;14.18;2.85;;;;;;;9.35;68.53;100065.03;6010018;23;20031;-84
2021/11/08 02:43:26;;;;;;;11.15;2.60;;;;;;;9.33;68.33;100073.00;6011194;23;20031;-86
2021/11/08 02:46:09;;;;;;;12.82;2.30;;;;;;;9.29;68.54;100076.69;6009789;23;20464;-86
2021/11/08 02:48:37;;;;;;;12.82;3.45;;;;;;;9.27;68.37;100081.13;6011412;23;20377;-88
2021/11/08 02:51:27;;;;;;;14.43;2.88;;;;;;;9.24;68.59;100079.50;6009980;23;20031;-87
2021/11/08 02:54:11;;;;;;;13.38;3.13;;;;;;;9.20;68.46;100085.00;5987098;23;20034;-83
2021/11/08 02:56:38;;;;;;;10.13;2.30;;;;;;;9.17;68.71;100091.25;5986749;23;20023;-86
2021/11/08 02:59:05;;;;;;;15.05;2.83;;;;;;;9.14;68.72;100099.25;6011342;23;20031;-88
2021/11/08 03:01:33;;;;;;;13.18;2.80;;;;;;;9.11;68.94;100092.38;5986262;23;20028;-87
2021/11/08 03:04:01;;;;;;;13.70;2.53;;;;;;;9.09;68.87;100088.09;6009705;23;20027;-86
2021/11/08 03:06:33;;;;;;;13.75;2.80;;;;;;;9.08;69.21;100100.38;6011243;23;20040;-86
2021/11/08 03:09:19;;;;;;;12.93;3.05;;;;;;;9.05;69.37;100099.66;6009930;23;20039;-84
2021/11/08 03:11:48;;;;;;;16.20;2.78;;;;;;;9.08;69.23;100096.91;6011406;23;20080;-85
2021/11/08 03:14:17;;;;;;;12.93;3.33;;;;;;;9.09;69.62;100101.25;6011676;23;20106;-88
2021/11/08 03:16:48;;;;;;;13.13;2.70;;;;;;;9.07;69.21;100098.69;6009480;23;20024;-86
2021/11/08 03:22:06;;;;;;;13.90;3.33;;;;;;;9.06;69.18;100098.75;6011652;23;20030;-86
2021/11/08 03:24:39;;;;;;;9.05;2.88;;;;;;;9.07;69.01;100100.44;6011569;23;20031;-86
2021/11/08 03:29:56;;;;;;;11.48;2.22;;;;;;;9.02;69.20;100105.91;6010438;23;20357;-87
2021/11/08 03:32:23;;;;;;;12.15;2.80;;;;;;;9.01;69.14;100105.97;6010508;23;20080;-85
2021/11/08 03:34:57;;;;;;;9.18;2.90;;;;;;;8.97;69.19;100116.63;6011345;23;20094;-87
2021/11/08 03:37:25;;;;;;;9.93;2.70;;;;;;;8.95;69.24;100120.22;6011766;23;20035;-86
2021/11/08 03:39:52;;;;;;;12.40;2.38;;;;;;;8.93;68.90;100115.03;6010910;23;20023;-87
2021/11/08 03:42:19;;;;;;;10.15;2.65;;;;;;;8.91;68.99;100116.91;6010596;23;20504;-83
2021/11/08 03:44:48;;;;;;;13.60;2.20;;;;;;;8.88;69.10;100122.28;6008932;23;20035;-87
2021/11/08 03:47:15;;;;;;;14.40;2.70;;;;;;;8.85;69.45;100111.91;6009215;23;20024;-85
2021/11/08 03:49:42;;;;;;;12.20;2.42;;;;;;;8.84;69.27;100112.81;6009602;23;20025;-87
2021/11/08 03:52:09;;;;;;;14.75;3.25;;;;;;;8.81;69.13;100113.81;5986071;23;20027;-84
2021/11/08 03:54:35;;;;;;;11.00;2.58;;;;;;;8.81;69.30;100115.56;6010833;23;20019;-86
2021/11/08 03:57:07;;;;;;;14.18;2.75;;;;;;;8.77;69.28;100114.00;5986348;23;20100;-87
2021/11/08 03:59:33;;;;;;;9.07;2.40;;;;;;;8.75;69.45;100111.47;6010786;23;20032;-87
2021/11/08 04:02:01;;;;;;;10.30;2.58;;;;;;;8.74;69.48;100115.00;6011049;23;20035;-83
2021/11/08 04:04:28;;;;;;;14.07;3.30;;;;;;;8.72;69.67;100122.09;5985297;23;20026;-86
2021/11/08 04:06:57;;;;;;;9.98;2.50;;;;;;;8.72;69.75;100117.69;6010759;23;20536;-87
2021/11/08 04:09:24;;;;;;;9.73;2.35;;;;;;;8.72;69.57;100111.59;6010839;23;20023;-86
2021/11/08 04:11:52;;;;;;;12.50;1.92;;;;;;;8.72;69.76;100122.09;6010936;23;20046;-86
2021/11/08 04:14:20;;;;;;;10.52;2.20;;;;;;;8.71;69.46;100126.47;5986123;23;20028;-86
2021/11/08 04:16:47;;;;;;;12.27;2.58;;;;;;;8.71;69.85;100123.84;6009583;23;20031;-85
2021/11/08 04:19:14;;;;;;;10.63;2.83;;;;;;;8.71;69.71;100126.47;6010801;23;20031;-87
2021/11/08 04:21:41;;;;;;;12.75;2.85;;;;;;;8.71;69.53;100131.72;5986414;23;20024;-87
2021/11/08 04:24:08;;;;;;;15.32;2.60;;;;;;;8.72;69.82;100136.06;6011022;23;20024;-86
2021/11/08 04:26:37;;;;;;;13.48;2.75;;;;;;;8.71;69.61;100129.09;6010890;23;20031;-87
2021/11/08 04:29:05;;;;;;;15.13;2.65;;;;;;;8.71;69.79;100121.22;6010796;23;20023;-87
2021/11/08 04:31:35;;;;;;;10.23;2.17;;;;;;;8.72;69.74;100124.72;6010768;23;20030;-87
2021/11/08 04:34:16;;;;;;;10.82;2.17;;;;;;;8.70;69.45;100116.91;6010409;23;20038;-87
2021/11/08 04:42:37;;;;;;;15.65;2.30;;;;;;;8.73;69.85;100123.78;6010341;23;20353;-87
2021/11/08 05:21:11;;;;;;;15.13;3.05;;;;;;;8.67;69.46;100139.81;6010043;23;20360;-87
2021/11/08 05:31:01;;;;;;;13.77;2.83;;;;;;;8.45;69.93;100170.41;6012148;23;20491;-87
2021/11/08 05:33:28;;;;;;;14.60;2.97;;;;;;;8.44;70.18;100176.56;6012182;23;20028;-87
2021/11/08 05:35:55;;;;;;;13.13;2.72;;;;;;;8.43;70.36;100172.25;6012122;23;20027;-87
2021/11/08 05:38:21;;;;;;;9.30;3.08;;;;;;;8.43;70.15;100169.63;5987486;23;20027;-87
2021/11/08 05:40:48;;;;;;;11.93;3.33;;;;;;;8.43;70.19;100179.25;6010568;23;20035;-87
2021/11/08 05:43:15;;;;;;;15.90;3.30;;;;;;;8.41;70.45;100171.44;5987475;23;20034;-87
2021/11/08 05:45:42;;;;;;;14.27;3.33;;;;;;;8.41;70.39;100174.06;6010678;23;20042;-86
2021/11/08 05:48:08;;;;;;;13.88;3.45;;;;;;;8.41;69.99;100175.84;6009936;23;20023;-86
2021/11/08 05:50:39;;;;;;;13.70;3.20;;;;;;;8.39;69.86;100175.03;5987707;23;20023;-86
2021/11/08 05:53:12;;;;;;;13.32;3.00;;;;;;;8.39;70.30;100181.16;6012081;23;20035;-87
2021/11/08 05:55:51;;;;;;;17.55;4.32;;;;;;;8.39;70.14;100188.16;5987945;23;20356;-87
2021/11/08 06:48:54;;;;;;;11.40;4.43;;;;;;;8.31;70.67;100217.34;6010542;23;20038;-82
2021/11/08 06:51:03;;;;;;;13.30;3.65;;;;;;;8.32;70.41;100227.75;6010803;23;20031;-86
2021/11/08 06:53:32;;;;;;;17.70;4.32;;;;;;;8.33;70.46;100220.72;6010995;23;20027;-85
2021/11/08 06:55:59;;;;;;;11.77;4.22;;;;;;;8.33;70.47;100229.47;5986056;23;20028;-87
2021/11/08 06:58:27;;;;;;;13.38;4.38;;;;;;;8.34;70.52;100225.91;6010526;23;20031;-86
2021/11/08 07:00:55;;;;;;;17.02;4.30;;;;;;;8.36;70.52;100220.63;6010159;23;20024;-88
2021/11/08 07:03:22;;;;;;;13.75;4.38;;;;;;;8.37;70.39;100227.56;5985483;23;20024;-85
2021/11/08 07:05:49;;;;;;;13.45;4.00;;;;;;;8.37;70.22;100238.06;6008247;23;20035;-87
2021/11/08 07:08:16;;;;;;;18.33;4.50;;;;;;;8.37;69.85;100232.81;6008170;23;20024;-87
2021/11/08 07:10:43;;;;;;;10.55;3.50;;;;;;;8.37;70.11;100238.06;6009780;23;20028;-88
2021/11/08 07:13:10;;;;;;;10.65;3.92;;;;;;;8.35;69.93;100237.28;6008481;23;20020;-87
2021/11/08 07:15:37;;;;;;;15.63;4.70;;;;;;;8.35;70.03;100234.66;6009464;23;20027;-87
2021/11/08 07:18:04;;;;;;;16.35;4.45;;;;;;;8.35;70.39;100242.53;5985423;23;20027;-85
2021/11/08 07:20:32;;;;;;;13.07;4.22;;;;;;;8.35;70.50;100253.03;6011373;23;20031;-87
2021/11/08 07:22:59;;;;;;;14.90;3.85;;;;;;;8.36;70.27;100254.72;5988728;23;20031;-86
2021/11/08 07:25:26;;;;;;;18.88;4.88;;;;;;;8.36;70.29;100252.09;5989325;23;20509;-86
2021/11/08 07:27:53;;;;;;;17.63;4.50;;;;;;;8.37;70.42;100258.22;6010541;23;20032;-86
2021/11/08 07:30:21;;;;;;;17.23;4.97;;;;;;;8.38;70.41;100259.91;6010056;23;20020;-87
2021/11/08 07:32:48;;;;;;;12.23;4.65;;;;;;;8.38;70.95;100250.28;5985452;23;20038;-86
2021/11/08 07:35:15;;;;;;;20.40;5.32;;;;;;;8.41;70.77;100259.78;6010368;23;20031;-87
2021/11/08 07:37:46;;;;;;;18.30;4.65;;;;;;;8.42;70.43;100259.75;6008001;23;20019;-86
2021/11/08 07:40:16;;;;;;;14.20;4.70;;;;;;;8.45;70.77;100267.47;5985166;23;20023;-85
2021/11/08 07:42:43;;;;;;;16.00;5.22;;;;;;;8.46;70.75;100270.94;6009846;23;20467;-88
2021/11/08 07:45:10;;;;;;;14.25;4.43;;;;;;;8.48;70.64;100280.47;6009608;23;20035;-85
2021/11/08 07:47:44;;;;;;;17.15;5.25;;;;;;;8.48;70.38;100288.34;5985633;23;20028;-82
2021/11/08 07:50:35;;;;;;;14.90;5.03;;;;;;;8.51;70.32;100289.97;5990193;23;20027;-88
2021/11/08 07:53:02;;;;;;;13.70;5.10;;;;;;;8.52;70.40;100298.72;5984858;23;20027;-86
2021/11/08 07:55:35;;;;;;;13.38;4.43;;;;;;;8.51;70.46;100292.59;6009311;23;20035;-86
2021/11/08 07:58:05;;;;;;;13.43;4.75;;;;;;;8.54;70.29;100294.28;5985888;23;20039;-85
2021/11/08 08:00:37;;;;;;;16.95;4.80;;;;;;;8.53;70.37;100300.44;5985155;23;20040;-83
2021/11/08 08:03:09;;;;;;;17.00;5.25;;;;;;;8.54;70.58;100305.66;5984967;23;20027;-87
2021/11/08 08:05:40;;;;;;;13.23;4.55;;;;;;;8.58;70.65;100309.00;5985337;23;20487;-85
2021/11/08 08:08:12;;;;;;;16.80;5.05;;;;;;;8.59;70.69;100310.69;6008210;23;20044;-86
2021/11/08 08:10:40;;;;;;;16.05;4.20;;;;;;;8.64;70.63;100319.25;6008272;23;20039;-87
2021/11/08 08:13:08;;;;;;;15.48;4.75;;;;;;;8.68;70.71;100325.22;6007685;23;20223;-88
2021/11/08 08:15:36;;;;;;;10.95;4.20;;;;;;;8.71;70.91;100318.09;6008234;23;20039;-84
2021/11/08 08:18:02;;;;;;;16.90;5.47;;;;;;;8.77;70.56;100321.38;5985133;23;20035;-84
2021/11/08 08:20:33;;;;;;;13.55;4.78;;;;;;;8.83;70.96;100323.75;6009850;23;20032;-87
2021/11/08 08:23:00;;;;;;;18.08;4.57;;;;;;;8.90;70.76;100313.88;5984906;23;20027;-88
2021/11/08 08:25:26;;;;;;;14.65;5.07;;;;;;;8.97;70.94;100318.78;6007816;23;20478;-84
2021/11/08 08:27:54;;;;;;;14.88;4.15;;;;;;;9.05;70.63;100320.25;5985042;23;20028;-86
2021/11/08 08:30:20;;;;;;;14.30;4.07;;;;;;;9.12;70.77;100319.06;6009249;23;20463;-86
2021/11/08 08:32:47;;;;;;;14.55;4.13;;;;;;;9.17;70.60;100321.50;6010098;23;20046;-87
2021/11/08 08:35:13;;;;;;;16.77;4.97;;;;;;;9.22;70.54;100330.03;6009606;23;20079;-86
2021/11/08 08:37:41;;;;;;;13.50;4.25;;;;;;;9.29;70.51;100335.88;5984768;23;20486;-86
2021/11/08 08:40:08;;;;;;;16.20;4.10;;;;;;;9.35;70.41;100333.03;5983992;23;20072;-83
2021/11/08 08:42:35;;;;;;;19.33;4.57;;;;;;;9.41;70.13;100316.97;6009038;23;20035;-85
2021/11/08 08:45:09;;;;;;;14.25;5.00;;;;;;;9.46;69.52;100330.75;6008477;23;20031;-85
2021/11/08 08:47:42;;;;;;;19.55;5.32;;;;;;;9.52;69.60;100327.88;5985367;23;20095;-85
2021/11/08 08:50:09;;;;;;;14.43;4.38;;;;;;;9.58;69.67;100331.16;5984278;23;20397;-86
2021/11/08 08:52:36;;;;;;;13.75;4.60;;;;;;;9.61;69.36;100336.31;6007892;23;20076;-86
2021/11/08 08:55:04;;;;;;;9.30;3.88;;;;;;;9.64;69.54;100347.53;6009103;23;20024;-88
2021/11/08 08:57:31;;;;;;;11.18;3.97;;;;;;;9.68;69.40;100350.84;6007705;23;20031;-88
2021/11/08 08:59:59;;;;;;;12.32;4.38;;;;;;;9.70;69.20;100338.53;6008927;23;20532;-85
2021/11/08 09:02:48;;;;;;;12.30;4.40;;;;;;;9.73;69.02;100341.03;5988495;23;20031;-89
2021/11/08 09:05:15;;;;;;;13.68;4.95;;;;;;;9.76;69.10;100351.38;6009486;23;20027;-85
2021/11/08 09:07:48;;;;;;;12.98;4.53;;;;;;;9.81;69.25;100342.44;6008199;23;20333;-87
2021/11/08 09:10:14;;;;;;;14.40;4.10;;;;;;;9.84;69.07;100344.94;6009276;23;20482;-86
2021/11/08 09:12:41;;;;;;;12.63;4.25;;;;;;;9.86;69.39;100348.34;6008080;23;20020;-86
2021/11/08 09:15:09;;;;;;;14.75;5.05;;;;;;;9.90;69.19;100353.41;6008024;23;20036;-86
2021/11/08 09:17:36;;;;;;;14.55;5.00;;;;;;;9.94;69.25;100355.91;5984830;23;20030;-87
2021/11/08 09:20:08;;;;;;;17.55;4.82;;;;;;;9.98;69.02;100346.97;5985314;23;20024;-86
2021/11/08 09:22:36;;;;;;;12.80;4.53;;;;;;;10.01;69.14;100347.66;6007349;23;20028;-86
2021/11/08 09:25:06;;;;;;;13.45;4.57;;;;;;;10.04;68.49;100350.16;6007899;23;20028;-84
2021/11/08 09:27:33;;;;;;;14.23;4.65;;;;;;;10.08;68.69;100350.88;6009558;23;20045;-86
2021/11/08 09:30:07;;;;;;;14.27;4.13;;;;;;;10.10;68.45;100348.16;6007763;23;20024;-89
2021/11/08 09:32:34;;;;;;;12.50;3.90;;;;;;;10.14;68.81;100350.56;6008506;23;20030;-88
2021/11/08 09:35:01;;;;;;;13.73;4.30;;;;;;;10.16;68.81;100350.50;5984095;23;20023;-86
2021/11/08 09:37:32;;;;;;;10.55;3.45;;;;;;;10.20;68.86;100344.19;6009092;23;20020;-87
2021/11/08 09:39:59;;;;;;;14.20;4.22;;;;;;;10.24;68.92;100343.13;5984206;23;20363;-87
2021/11/08 09:42:28;;;;;;;12.98;4.15;;;;;;;10.28;68.89;100341.22;6009285;23;20106;-86
2021/11/08 09:44:55;;;;;;;13.90;4.03;;;;;;;10.34;69.06;100353.22;6009276;23;20024;-83
2021/11/08 09:47:22;;;;;;;11.02;4.20;;;;;;;10.38;68.95;100354.78;6007425;23;20027;-86
2021/11/08 09:49:52;;;;;;;15.00;4.40;;;;;;;10.43;68.81;100363.31;6007037;23;20024;-86
2021/11/08 09:52:21;;;;;;;12.35;4.18;;;;;;;10.50;69.18;100366.56;5983241;23;20413;-85
2021/11/08 09:55:06;;;;;;;11.15;4.00;;;;;;;10.58;69.07;100360.94;6008802;23;20024;-83
2021/11/08 09:57:33;;;;;;;13.80;4.85;;;;;;;10.65;69.08;100365.00;6010846;23;20028;-84
2021/11/08 10:00:03;;;;;;;11.98;4.00;;;;;;;10.71;68.94;100353.28;6010254;23;20023;-85
2021/11/08 10:02:31;;;;;;;11.70;4.00;;;;;;;10.78;68.93;100352.94;6011258;23;20031;-84
2021/11/08 10:04:57;;;;;;;14.07;4.05;;;;;;;10.85;68.66;100360.53;5986957;23;20053;-82
2021/11/08 10:07:28;;;;;;;14.98;4.05;;;;;;;10.90;68.70;100364.66;6012775;23;20045;-84
2021/11/08 10:09:55;;;;;;;11.40;3.88;;;;;;;10.97;68.73;100362.56;5987643;23;20369;-84
2021/11/08 10:12:21;;;;;;;18.10;5.15;;;;;;;11.03;68.70;100358.78;6012448;23;20070;-86
2021/11/08 10:14:48;;;;;;;11.90;4.15;;;;;;;11.11;68.87;100368.94;6010716;23;20429;-84
2021/11/08 10:17:15;;;;;;;14.60;4.85;;;;;;;11.19;68.83;100357.09;6011167;23;20023;-80
2021/11/08 10:19:42;;;;;;;14.82;4.85;;;;;;;11.27;68.57;100372.53;6012232;23;20303;-87
2021/11/08 10:22:10;;;;;;;21.02;4.78;;;;;;;11.35;68.70;100364.22;6010458;23;20083;-86
2021/11/08 10:24:38;;;;;;;15.13;3.90;;;;;;;11.46;68.92;100372.44;5986017;23;20083;-86
2021/11/08 10:27:09;;;;;;;12.77;4.28;;;;;;;11.58;68.65;100378.00;6010151;23;20023;-85
2021/11/08 10:29:45;;;;;;;15.65;4.20;;;;;;;11.69;67.50;100377.47;5985689;23;20024;-86
2021/11/08 10:32:13;;;;;;;15.10;3.92;;;;;;;11.82;67.93;100373.25;5986283;23;20111;-83
2021/11/08 10:34:52;;;;;;;13.55;3.92;;;;;;;11.90;66.32;100378.13;5986474;23;20298;-86
2021/11/08 10:37:28;;;;;;;14.38;4.15;;;;;;;11.98;66.24;100375.09;5986359;23;20468;-86
2021/11/08 10:39:56;;;;;;;12.57;4.03;;;;;;;12.06;67.05;100369.44;6010553;23;20019;-85
2021/11/08 10:42:28;;;;;;;12.55;4.22;;;;;;;12.12;66.60;100364.66;6009239;23;20083;-83
2021/11/08 10:44:56;;;;;;;9.70;3.95;;;;;;;12.19;67.07;100369.63;6011175;23;20030;-86
2021/11/08 10:47:24;;;;;;;12.93;4.63;;;;;;;12.23;67.30;100361.44;6009873;23;20028;-86
2021/11/08 10:49:53;;;;;;;13.32;3.85;;;;;;;12.32;67.44;100361.88;6010270;23;20030;-86
2021/11/08 10:52:32;;;;;;;11.85;3.90;;;;;;;12.40;67.17;100361.50;6010691;23;20154;-86
2021/11/08 10:55:00;;;;;;;9.57;3.28;;;;;;;12.54;67.38;100369.50;6011172;23;20043;-85
2021/11/08 10:57:29;;;;;;;14.95;3.80;;;;;;;12.67;67.13;100361.72;6010829;23;20027;-86
2021/11/08 10:59:56;;;;;;;17.52;3.53;;;;;;;12.82;67.33;100372.38;5985866;23;20019;-86
2021/11/08 11:02:28;;;;;;;12.43;3.67;;;;;;;12.97;67.11;100360.09;6010304;23;20031;-85
2021/11/08 11:04:58;;;;;;;11.23;3.38;;;;;;;13.16;67.18;100370.44;6009449;23;20476;-84
2021/11/08 11:07:28;;;;;;;11.05;3.40;;;;;;;13.34;67.01;100371.16;6008909;23;20030;-85
2021/11/08 11:10:09;;;;;;;13.68;4.40;;;;;;;13.53;65.03;100372.75;6010982;23;20475;-86
2021/11/08 11:12:40;;;;;;;11.23;3.08;;;;;;;13.76;66.69;100375.81;5986092;23;20027;-82
2021/11/08 11:15:09;;;;;;;13.43;2.97;;;;;;;13.93;65.38;100369.47;6011544;23;20023;-84
2021/11/08 11:17:51;;;;;;;9.95;2.83;;;;;;;14.03;62.72;100373.28;6011060;23;20344;-85
2021/11/08 11:20:22;;;;;;;14.15;3.42;;;;;;;14.17;63.82;100372.38;6011756;23;20020;-85
2021/11/08 11:23:05;;;;;;;12.10;2.47;;;;;;;14.25;63.22;100373.72;5985654;23;20382;-82
2021/11/08 11:25:36;;;;;;;8.30;2.35;;;;;;;14.33;62.86;100371.44;5985386;23;20023;-84
2021/11/08 11:28:06;;;;;;;10.80;3.00;;;;;;;14.37;62.41;100377.38;6008579;23;20544;-84
2021/11/08 11:30:36;;;;;;;13.60;3.28;;;;;;;14.37;62.10;100378.25;5985786;23;20099;-82
2021/11/08 11:33:12;;;;;;;10.75;2.75;;;;;;;14.34;61.21;100375.78;6010393;23;20030;-83
2021/11/08 11:35:45;;;;;;;14.02;3.47;;;;;;;14.36;61.18;100381.84;6010581;23;20083;-86
2021/11/08 11:38:20;;;;;;;11.88;2.58;;;;;;;14.37;61.41;100378.25;6007670;23;20031;-85
2021/11/08 11:41:15;;;;;;;10.57;3.40;;;;;;;14.35;60.48;100372.19;5985712;23;20023;-85
2021/11/08 11:43:44;;;;;;;10.52;2.63;;;;;;;14.40;62.20;100378.06;5985208;23;20364;-83
2021/11/08 11:46:17;;;;;;;12.07;3.25;;;;;;;14.40;61.88;100372.75;6011348;23;20031;-82
2021/11/08 11:48:44;;;;;;;;;;;;;;;14.41;61.69;100366.50;6010303;23;20079;-86
2021/11/08 11:51:16;;;;;;;10.05;2.42;;;;;;;14.47;62.02;100373.22;6008758;23;20350;-82
2021/11/08 11:53:43;;;;;;;14.55;2.83;;;;;;;14.54;63.61;100368.38;6010318;23;20356;-83
2021/11/08 11:56:11;;;;;;;11.57;2.53;;;;;;;14.68;65.02;100373.63;6009555;23;20106;-85
2021/11/08 11:58:38;;;;;;;13.73;3.38;;;;;;;14.92;64.96;100375.66;6010007;23;20031;-86
2021/11/08 12:01:08;;;;;;;16.23;4.05;;;;;;;15.14;62.16;100374.25;6008444;23;20031;-85
2021/11/08 12:03:35;;;;;;;15.02;3.88;;;;;;;15.29;61.24;100374.19;6008118;23;20023;-84
2021/11/08 12:06:03;;;;;;;12.65;3.08;;;;;;;15.36;60.54;100375.47;6009933;23;20031;-83
2021/11/08 12:08:34;;;;;;;12.13;3.00;;;;;;;15.36;60.00;100367.50;6009265;23;20035;-86
2021/11/08 12:11:02;;;;;;;9.07;2.80;;;;;;;15.33;60.15;100370.38;6008119;23;20079;-85
2021/11/08 12:13:30;;;;;;;13.70;3.72;;;;;;;15.29;59.42;100379.50;6009358;23;20038;-84
2021/11/08 12:16:11;;;;;;;13.15;3.50;;;;;;;15.15;57.34;100368.00;6008277;23;20027;-86
2021/11/08 12:18:38;;;;;;;11.43;3.38;;;;;;;15.12;59.17;100368.19;5984542;23;20034;-86
2021/11/08 12:21:04;;;;;;;16.95;4.25;;;;;;;15.01;58.90;100365.41;6010491;23;20388;-84
2021/11/08 12:23:39;;;;;;;9.48;2.97;;;;;;;14.89;58.39;100373.22;5984788;23;20035;-85
2021/11/08 12:26:20;;;;;;;12.70;3.30;;;;;;;14.80;58.80;100361.41;5986149;23;20024;-86
2021/11/08 12:28:47;;;;;;;12.55;3.30;;;;;;;14.86;60.59;100357.53;6007815;23;20027;-86
2021/11/08 12:31:22;;;;;;;14.05;3.78;;;;;;;14.87;59.00;100363.69;6009982;23;20020;-84
2021/11/08 12:34:06;;;;;;;11.63;3.60;;;;;;;14.88;58.14;100360.91;5985145;23;20122;-83
2021/11/08 12:36:34;;;;;;;12.70;3.38;;;;;;;14.95;60.34;100351.59;6010000;23;20035;-86
2021/11/08 12:39:17;;;;;;;16.33;4.03;;;;;;;14.95;58.31;100343.66;6007445;23;20023;-87
2021/11/08 12:41:50;;;;;;;16.17;3.33;;;;;;;14.97;59.56;100344.41;6009965;23;20106;-85
2021/11/08 12:44:23;;;;;;;16.15;3.58;;;;;;;14.93;57.78;100345.56;6010052;23;20024;-86
2021/11/08 12:46:52;;;;;;;;;;;;;;;14.93;58.86;100345.56;6009629;23;20035;-83
2021/11/08 12:49:33;;;;;;;12.07;3.80;;;;;;;14.89;57.23;100340.56;6010757;23;20410;-85
2021/11/08 12:52:18;;;;;;;12.15;3.35;;;;;;;14.79;58.07;100345.59;5986735;23;20023;-86
2021/11/08 12:55:00;;;;;;;12.25;3.28;;;;;;;14.68;57.57;100343.63;6010953;23;20540;-82
2021/11/08 12:57:29;;;;;;;10.95;2.97;;;;;;;14.61;59.42;100335.22;6009907;23;20479;-83
2021/11/08 13:00:19;;;;;;;13.38;3.17;;;;;;;14.45;58.67;100338.03;6007592;23;20043;-85
2021/11/08 13:02:55;;;;;;;13.80;2.95;;;;;;;14.40;59.37;100332.19;5984670;23;20039;-85
2021/11/08 13:05:29;;;;;;;9.43;2.72;;;;;;;14.28;58.78;100342.59;5986112;23;20035;-86
2021/11/08 13:07:59;;;;;;;9.45;2.80;;;;;;;14.23;59.55;100330.59;6009534;23;20410;-84
2021/11/08 13:10:36;;;;;;;14.82;2.85;;;;;;;14.11;59.10;100334.84;6007862;23;20043;-86
2021/11/08 13:13:08;;;;;;;14.70;3.05;;;;;;;14.10;60.45;100335.81;6007761;23;20028;-85
2021/11/08 13:15:42;;;;;;;15.45;3.10;;;;;;;14.05;60.65;100334.31;6009554;23;20364;-86
2021/11/08 13:18:12;;;;;;;12.27;2.95;;;;;;;14.06;60.58;100337.81;5984576;23;20031;-84
2021/11/08 13:20:49;;;;;;;11.93;3.28;;;;;;;14.01;60.03;100335.44;6009514;23;20048;-85
2021/11/08 13:23:21;;;;;;;9.85;3.03;;;;;;;14.03;60.47;100336.22;6008605;23;20031;-86
2021/11/08 13:25:54;;;;;;;11.15;3.45;;;;;;;14.03;60.17;100338.00;5984878;23;20098;-85
2021/11/08 13:28:27;;;;;;;16.27;3.03;;;;;;;14.05;60.94;100334.31;6007306;23;20460;-85